Terminal Aerodrome Forecast
Issued by NWS

Home | Current Version | Previous Version | Text Only | Print | Product List | Glossary On
Versions: 1 2 3 4 5 6 7 8 9 10 11 12 13 14
000
FTUS42 KMLB 230500
TAFISM
TAF
KISM 230530Z 2306/2406 00000KT P6SM SKC
     FM231300 VRB02KT P6SM FEW030
     FM231500 04005KT P6SM FEW045
     FM232100 06007KT P6SM SCT045
      AMD NOT SKED TIL 231100=

USA.gov is the U.S. government's official web portal to all federal, state and local government web resources and services.